PAAQ METAR and TAF weather

Enter ICAO airport designator
Station Type Date Time Source
PAAQ METAR 2024/04/17 17:53 UTC NOAA

PAAQ 171753Z 08003KT 10SM BKN120 06/M07 A3028 RMK AO2 SLP259 T00561072 10056 21011 55005


Station Type Date Time Source
PAAQ Decoded METAR 2024/04/17 17:53 UTC NOAA

PALMER MUNICIPAL AIRPORT, AK, United States (PAAQ) 61-36N 149-06W
Apr 17, 2024 - 01:53 PM EDT / 2024.04.17 1753 UTC
Wind: from the E (080 degrees) at 3 MPH (3 KT):0
Visibility: 10 mile(s):0
Sky conditions: mostly cloudy
Temperature: 42.1 F (5.6 C)
Dew Point: 19.0 F (-7.2 C)
Relative Humidity: 39%
Pressure (altimeter): 30.28 in. Hg (1025 hPa)
Pressure tendency: 0.01 inches (0.5 hPa) lower than three hours ago
ob: PAAQ 171753Z 08003KT 10SM BKN120 06/M07 A3028 RMK AO2 SLP259 T00561072 10056 21011 55005
cycle: 18

Station Type Date Time Source
PAAQ TAF 2024/04/17 18:36 UTC NOAA